No particular awareness of the weather is required.    There are no Weather-warnings


Meteo18 Weather Cam more information Meteo18 Weather Cam


Thunder radar more information blitzortung!


Rain radar more information rain snow radar


Visit our other weather sites:

Template documentation
and downloads

And another site



Weather Underground History page Text

Daily Summary for February 16, 2017 Units:  English    Metric   Both
« Previous Day
Next Day »
Daily Weekly Monthly Yearly Custom
  High: Low: Average:
Temperature: TemperatureC °F 3.2 °F 8 °F
Dew Point: DewpointC °F 2.3 °F 6.6 °F
Humidity: Humidity % 79 % 91 %
Wind Speed: WindSpeedKMH mph 0.0 mph 1.5 mph
Wind Gust: WindSpeedGustKMH mph - -
Wind:- - SW
Pressure: PressurehPa in 1030.4 in -
Precipitation: 1.8 in    
Historical Graphs
 
 
Tabular Data for February 16, 2017
Time Temperature Dew Point Pressure Wind Wind Speed Wind Gust Humidity Rainfall Rate (Hourly)
TemperatureC °F DewpointC °F PressurehPa in Calm     Humidity % HourlyPrecipMM in
00:02 7.2 °F 5.5 °F 1033.4 in Calm   3.2 mph 89 % 0.0 in
00:12 7.6 °F 5.9 °F 1033.4 in Calm   3.2 mph 89 % 0.0 in
00:17 7.6 °F 6.1 °F 1033.4 in Calm   1.6 mph 90 % 0.0 in
00:22 7.6 °F 5.9 °F 1033.4 in Calm     89 % 0.0 in
00:27 7.3 °F 5.6 °F 1033.4 in Calm     89 % 0.0 in
00:32 7.1 °F 5.4 °F 1033.4 in WNW 1.6 mph 1.6 mph 89 % 0.0 in
00:37 6.6 °F 4.9 °F 1033.4 in Calm   1.6 mph 89 % 0.0 in
00:42 6.7 °F 5.5 °F 1033.4 in Calm   1.6 mph 92 % 0.0 in
00:47 7.1 °F 6.0 °F 1033.4 in Calm   1.6 mph 93 % 0.0 in
00:52 7.1 °F 5.6 °F 1033.7 in WNW 1.6 mph 1.6 mph 90 % 0.0 in
00:57 6.8 °F 5.4 °F 1033.7 in WNW 1.6 mph 1.6 mph 91 % 0.0 in
01:02 6.7 °F 5.3 °F 1033.7 in WNW 1.6 mph 1.6 mph 91 % 0.0 in
01:07 6.4 °F 4.9 °F 1033.7 in West 1.6 mph 1.6 mph 90 % 0.0 in
01:12 6.3 °F 5.1 °F 1033.7 in WNW 1.6 mph 1.6 mph 92 % 0.0 in
01:17 6.7 °F 5.8 °F 1033.4 in Calm   3.2 mph 94 % 0.0 in
01:22 7.3 °F 6.1 °F 1033.4 in Calm   3.2 mph 92 % 0.0 in
01:27 7.3 °F 5.8 °F 1033.4 in Calm   3.2 mph 90 % 0.0 in
01:32 7.1 °F 5.6 °F 1033.4 in Calm   1.6 mph 90 % 0.0 in
01:42 6.4 °F 4.9 °F 1033.4 in Calm   1.6 mph 90 % 0.0 in
01:47 6.1 °F 4.7 °F 1033.7 in Calm     91 % 0.0 in
01:52 6.0 °F 4.8 °F 1033.4 in Calm     92 % 0.0 in
02:02 5.7 °F 4.5 °F 1033.7 in Calm   1.6 mph 92 % 0.0 in
02:07 5.8 °F 4.8 °F 1033.4 in Calm   1.6 mph 93 % 0.0 in
02:22 5.6 °F 4.4 °F 1033.4 in WNW 3.2 mph 3.2 mph 92 % 0.0 in
02:32 5.7 °F 5.0 °F 1033.7 in Calm   3.2 mph 95 % 0.0 in
02:42 5.8 °F 4.8 °F 1033.7 in Calm   3.2 mph 93 % 0.0 in
02:52 5.6 °F 4.6 °F 1033.7 in Calm   1.6 mph 93 % 0.0 in
02:57 5.4 °F 4.5 °F 1033.4 in Calm   1.6 mph 94 % 0.0 in
03:02 5.4 °F 4.5 °F 1033.4 in Calm   1.6 mph 94 % 0.0 in
03:07 5.6 °F 4.9 °F 1033.4 in Calm   1.6 mph 95 % 0.0 in
03:12 5.6 °F 4.7 °F 1033.7 in Calm   1.6 mph 94 % 0.0 in
03:17 5.4 °F 4.5 °F 1033.7 in Calm   1.6 mph 94 % 0.0 in
03:22 5.3 °F 4.4 °F 1033.4 in Calm     94 % 0.0 in
03:32 5.4 °F 4.7 °F 1033.4 in Calm     95 % 0.0 in
03:42 5.6 °F 5.0 °F 1033.4 in NE 1.6 mph   96 % 0.0 in
03:52 5.6 °F 4.9 °F 1033.4 in Calm   3.2 mph 95 % 0.0 in
03:57 5.6 °F 4.9 °F 1033.4 in North 1.6 mph 3.2 mph 95 % 0.0 in
04:02 5.4 °F 4.7 °F 1033.4 in Calm   3.2 mph 95 % 0.0 in
04:12 4.9 °F 4.2 °F 1033.4 in Calm   3.2 mph 95 % 0.0 in
04:22 5.2 °F 4.5 °F 1033.4 in Calm   1.6 mph 95 % 0.0 in
04:27 4.0 °F 2.7 °F 1033.4 in SE 1.6 mph 1.6 mph 91 % 0.0 in
04:32 3.3 °F 2.3 °F 1033.4 in Calm   4.8 mph 93 % 0.0 in
04:42 3.9 °F 3.3 °F 1033.1 in Calm   4.8 mph 96 % 0.0 in
04:47 4.1 °F 3.5 °F 1033.1 in Calm   1.6 mph 96 % 0.0 in
04:52 4.2 °F 3.6 °F 1033.1 in Calm     96 % 0.0 in
05:02 4.7 °F 4.3 °F 1033.1 in Calm     97 % 0.0 in
05:07 4.7 °F 4.1 °F 1033.1 in Calm     96 % 0.0 in
05:12 5.0 °F 4.6 °F 1033.1 in Calm     97 % 0.0 in
05:17 4.8 °F 4.2 °F 1033.1 in Calm     96 % 0.0 in
05:22 4.8 °F 4.2 °F 1033.1 in Calm     96 % 0.0 in
05:32 4.3 °F 3.6 °F 1033.1 in Calm     95 % 0.0 in
05:37 4.1 °F 3.4 °F 1033.1 in Calm     95 % 0.0 in
05:42 3.9 °F 3.2 °F 1033.1 in SSE 3.2 mph   95 % 0.0 in
05:47 3.6 °F 2.9 °F 1033.4 in Calm   3.2 mph 95 % 0.0 in
05:52 3.3 °F 2.6 °F 1033.4 in South 1.6 mph 3.2 mph 95 % 0.0 in
05:57 3.2 °F 2.5 °F 1033.1 in SSW 1.6 mph 3.2 mph 95 % 0.0 in
06:02 3.2 °F 2.6 °F 1033.1 in Calm   3.2 mph 96 % 0.0 in
06:12 3.3 °F 2.7 °F 1033.1 in Calm   1.6 mph 96 % 0.0 in
06:17 3.4 °F 2.8 °F 1033.1 in Calm   1.6 mph 96 % 0.0 in
06:22 3.6 °F 3.2 °F 1033.1 in Calm   1.6 mph 97 % 0.0 in
06:27 3.6 °F 3.0 °F 1033.1 in Calm     96 % 0.0 in
06:32 3.5 °F 2.9 °F 1033.1 in Calm     96 % 0.0 in
06:42 3.6 °F 3.0 °F 1033.1 in Calm     96 % 0.0 in
06:47 3.8 °F 3.4 °F 1033.1 in Calm     97 % 0.0 in
06:52 3.9 °F 3.5 °F 1033.1 in Calm     97 % 0.0 in
07:02 4.2 °F 3.8 °F 1033.1 in SSW 3.2 mph 3.2 mph 97 % 0.0 in
07:07 4.2 °F 3.8 °F 1033.1 in Calm   3.2 mph 97 % 0.0 in
07:12 4.1 °F 3.5 °F 1033.1 in Calm   3.2 mph 96 % 0.0 in
07:17 4.1 °F 3.5 °F 1033.1 in Calm   3.2 mph 96 % 0.0 in
07:22 4.0 °F 3.4 °F 1033.1 in Calm   1.6 mph 96 % 0.0 in
07:27 4.1 °F 3.5 °F 1033.1 in Calm   1.6 mph 96 % 0.0 in
07:32 4.1 °F 3.7 °F 1033.1 in Calm   1.6 mph 97 % 0.0 in
07:42 4.5 °F 4.1 °F 1033.1 in Calm   1.6 mph 97 % 0.0 in
07:47 4.5 °F 4.1 °F 1033.1 in Calm   1.6 mph 97 % 0.0 in
07:52 4.4 °F 4.0 °F 1033.1 in Calm   1.6 mph 97 % 0.0 in
07:57 4.4 °F 4.0 °F 1033.1 in Calm   1.6 mph 97 % 0.0 in
08:02 4.3 °F 3.7 °F 1033.1 in Calm     96 % 0.0 in
08:12 4.2 °F 3.6 °F 1033.1 in Calm     96 % 0.0 in
08:17 4.2 °F 3.6 °F 1033.1 in Calm     96 % 0.0 in
08:22 4.4 °F 4.0 °F 1033.1 in Calm     97 % 0.0 in
08:32 4.6 °F 4.2 °F 1033.4 in Calm     97 % 0.0 in
08:37 4.5 °F 3.9 °F 1033.4 in Calm     96 % 0.0 in
08:42 4.5 °F 3.9 °F 1033.4 in Calm   1.6 mph 96 % 0.0 in
08:47 4.5 °F 3.9 °F 1033.4 in Calm   1.6 mph 96 % 0.0 in
08:57 4.6 °F 4.0 °F 1033.4 in Calm     96 % 0.0 in
09:02 4.8 °F 4.4 °F 1033.4 in Calm     97 % 0.0 in
09:07 4.9 °F 4.5 °F 1033.4 in Calm     97 % 0.0 in
09:12 5.1 °F 4.5 °F 1033.4 in Calm     96 % 0.0 in
09:17 5.1 °F 4.5 °F 1033.4 in Calm     96 % 0.0 in
09:22 5.1 °F 4.5 °F 1033.4 in Calm     96 % 0.0 in
09:27 5.1 °F 4.5 °F 1033.4 in Calm     96 % 0.0 in
09:32 5.2 °F 4.6 °F 1033.4 in Calm     96 % 0.0 in
09:37 5.4 °F 4.8 °F 1033.4 in Calm     96 % 0.0 in
09:42 5.6 °F 5.0 °F 1033.4 in Calm     96 % 0.0 in
09:47 5.6 °F 5.0 °F 1033.4 in Calm     96 % 0.0 in
09:52 5.7 °F 5.1 °F 1033.4 in Calm     96 % 0.0 in
09:57 5.8 °F 5.2 °F 1033.4 in Calm     96 % 0.0 in
10:02 5.9 °F 5.2 °F 1033.4 in Calm     95 % 0.0 in
10:12 6.2 °F 5.6 °F 1033.4 in Calm     96 % 0.0 in
10:17 6.4 °F 5.7 °F 1033.4 in Calm     95 % 0.0 in
10:22 6.7 °F 6.0 °F 1033.4 in Calm     95 % 0.0 in
10:32 7.2 °F 6.3 °F 1033.4 in Calm   3.2 mph 94 % 0.0 in
10:37 7.4 °F 6.5 °F 1033.4 in Calm   3.2 mph 94 % 0.0 in
10:42 7.5 °F 6.4 °F 1033.4 in SW 3.2 mph 3.2 mph 93 % 0.0 in
10:47 7.5 °F 6.3 °F 1033.4 in SSW 1.6 mph 3.2 mph 92 % 0.0 in
10:52 7.7 °F 6.5 °F 1033.4 in Calm   3.2 mph 92 % 0.0 in
11:02 7.9 °F 6.4 °F 1033.1 in SSW 1.6 mph 4.8 mph 90 % 0.0 in
11:12 8.2 °F 6.7 °F 1033.1 in SW 3.2 mph 4.8 mph 90 % 0.0 in
11:17 8.1 °F 6.6 °F 1033.1 in SW 3.2 mph 6.4 mph 90 % 0.0 in
11:22 8.3 °F 6.8 °F 1033.1 in SSW 3.2 mph 6.4 mph 90 % 0.0 in
11:27 8.4 °F 6.9 °F 1033.1 in SSW 3.2 mph 6.4 mph 90 % 0.0 in
11:32 8.6 °F 7.1 °F 1033.1 in SSE 3.2 mph 4.8 mph 90 % 0.0 in
11:42 8.9 °F 7.2 °F 1033.1 in SW 4.8 mph 6.4 mph 89 % 0.0 in
11:52 9.1 °F 7.4 °F 1033.1 in SW 4.8 mph 6.4 mph 89 % 0.0 in
11:57 9.2 °F 7.3 °F 1033.1 in SSW 1.6 mph 6.4 mph 88 % 0.0 in
12:02 9.3 °F 7.4 °F 1033.1 in SSW 3.2 mph 6.4 mph 88 % 0.0 in
12:12 9.4 °F 7.5 °F 1033.1 in SSW 6.4 mph 6.4 mph 88 % 0.0 in
12:17 9.4 °F 7.5 °F 1033.1 in SSW 3.2 mph 6.4 mph 88 % 0.0 in
12:22 9.6 °F 7.7 °F 1033.1 in SSW 3.2 mph 6.4 mph 88 % 0.0 in
12:32 9.8 °F 7.9 °F 1033.1 in SSW 4.8 mph 8.0 mph 88 % 0.0 in
12:37 9.9 °F 8.0 °F 1033.1 in SSW 4.8 mph 9.7 mph 88 % 0.0 in
12:42 10.1 °F 8.2 °F 1033.1 in SSW 8.0 mph 9.7 mph 88 % 0.0 in
12:52 10.3 °F 8.1 °F 1032.7 in South 3.2 mph 9.7 mph 86 % 0.0 in
12:57 10.4 °F 8.2 °F 1032.7 in SSW 3.2 mph 8.0 mph 86 % 0.0 in
13:02 10.5 °F 8.3 °F 1032.7 in South 1.6 mph 6.4 mph 86 % 0.0 in
13:12 10.9 °F 8.6 °F 1032.4 in SSW 3.2 mph 6.4 mph 86 % 0.0 in
13:17 11.0 °F 8.6 °F 1032.4 in SW 3.2 mph 6.4 mph 85 % 0.0 in
13:22 11.1 °F 8.5 °F 1032.4 in South 4.8 mph 8.0 mph 84 % 0.0 in
13:32 11.3 °F 8.3 °F 1032.4 in SSW 4.8 mph 6.4 mph 82 % 0.0 in
13:37 11.4 °F 8.3 °F 1032.1 in SSW 1.6 mph 6.4 mph 81 % 0.0 in
13:42 11.6 °F 8.8 °F 1032.1 in SW 6.4 mph 6.4 mph 83 % 0.0 in
13:47 11.8 °F 9.0 °F 1032.1 in Calm   8.0 mph 83 % 0.0 in
13:52 12.0 °F 8.7 °F 1032.1 in SSW 1.6 mph 8.0 mph 80 % 0.0 in
13:57 12.2 °F 8.7 °F 1032.1 in SSW 3.2 mph 8.0 mph 79 % 0.0 in
14:02 12.2 °F 8.9 °F 1032.1 in SSW 3.2 mph 8.0 mph 80 % 0.0 in
14:07 12.3 °F 8.9 °F 1031.7 in SW 4.8 mph 11.3 mph 80 % 0.0 in
14:12 12.5 °F 9.1 °F 1031.7 in SSW 8.0 mph 11.3 mph 80 % 0.0 in
14:17 12.6 °F 9.2 °F 1031.7 in SSW 4.8 mph 11.3 mph 80 % 0.0 in
14:27 12.9 °F 9.5 °F 1031.7 in South 4.8 mph 11.3 mph 80 % 0.0 in
14:32 12.9 °F 9.3 °F 1031.4 in SSW 1.6 mph 11.3 mph 79 % 0.0 in
14:42 12.8 °F 9.2 °F 1031.4 in SW 4.8 mph 14.5 mph 79 % 0.0 in
14:47 12.7 °F 9.3 °F 1031.0 in SSW 9.7 mph 14.5 mph 80 % 0.0 in
14:52 12.7 °F 9.2 °F 1031.0 in SW 8.0 mph 12.9 mph 79 % 0.0 in
14:57 12.6 °F 9.2 °F 1031.0 in SW 9.7 mph 12.9 mph 80 % 0.0 in
15:02 12.6 °F 9.2 °F 1031.0 in SW 8.0 mph 11.3 mph 80 % 0.0 in
15:12 12.6 °F 9.2 °F 1031.0 in SSW 1.6 mph 12.9 mph 80 % 0.0 in
15:22 12.6 °F 9.2 °F 1031.0 in WSW 4.8 mph 9.7 mph 80 % 0.0 in
15:32 12.6 °F 9.4 °F 1031.0 in WSW 4.8 mph 9.7 mph 81 % 0.0 in
15:37 12.5 °F 9.3 °F 1031.0 in SW 3.2 mph 9.7 mph 81 % 0.0 in
15:42 12.4 °F 9.2 °F 1031.0 in SW 3.2 mph 11.3 mph 81 % 0.0 in
15:47 12.4 °F 9.2 °F 1031.0 in SW 8.0 mph 11.3 mph 81 % 0.0 in
15:52 12.3 °F 9.1 °F 1031.0 in SW 11.3 mph 11.3 mph 81 % 0.0 in
16:12 12.1 °F 9.3 °F 1030.7 in SW 6.4 mph 11.3 mph 83 % 0.0 in
16:17 12.1 °F 9.3 °F 1030.7 in SW 8.0 mph 11.3 mph 83 % 0.0 in
16:27 12.1 °F 9.5 °F 1030.7 in SSW 6.4 mph 11.3 mph 84 % 0.0 in
16:32 12.1 °F 9.5 °F 1030.7 in SSW 1.6 mph 9.7 mph 84 % 0.0 in
16:42 12.1 °F 9.5 °F 1030.7 in SW 3.2 mph 8.0 mph 84 % 0.0 in
16:47 12.1 °F 9.5 °F 1030.7 in SW 3.2 mph 8.0 mph 84 % 0.0 in
16:52 12.1 °F 9.5 °F 1030.7 in SW 3.2 mph 8.0 mph 84 % 0.0 in
16:57 12.1 °F 9.7 °F 1030.7 in SW 3.2 mph 8.0 mph 85 % 0.0 in
17:02 12.1 °F 9.7 °F 1030.7 in SW 6.4 mph 8.0 mph 85 % 0.0 in
17:12 12.4 °F 9.6 °F 1030.7 in Calm   9.7 mph 83 % 0.0 in
17:17 12.4 °F 9.4 °F 1030.7 in SW 3.2 mph 9.7 mph 82 % 0.0 in
17:22 12.3 °F 9.5 °F 1030.7 in SW 6.4 mph 9.7 mph 83 % 0.0 in
17:32 12.1 °F 9.5 °F 1030.7 in SSW 6.4 mph 8.0 mph 84 % 0.0 in
17:42 11.8 °F 9.2 °F 1030.7 in SW 3.2 mph 9.7 mph 84 % 0.0 in
17:47 11.8 °F 9.0 °F 1030.7 in SW 4.8 mph 9.7 mph 83 % 0.0 in
17:57 11.8 °F 9.0 °F 1030.7 in West 1.6 mph 8.0 mph 83 % 0.0 in
18:02 11.7 °F 8.9 °F 1030.7 in WNW 3.2 mph 6.4 mph 83 % 0.0 in
18:12 11.2 °F 8.8 °F 1030.7 in Calm   3.2 mph 85 % 0.0 in
18:17 11.2 °F 8.8 °F 1030.7 in Calm   3.2 mph 85 % 0.0 in
18:22 11.2 °F 8.8 °F 1030.7 in Calm   3.2 mph 85 % 0.0 in
18:32 11.0 °F 8.7 °F 1030.7 in Calm   3.2 mph 86 % 0.0 in
18:37 10.8 °F 8.6 °F 1030.7 in Calm   3.2 mph 86 % 0.0 in
18:42 10.8 °F 8.7 °F 1030.7 in North 1.6 mph 3.2 mph 87 % 0.0 in
18:52 10.8 °F 8.7 °F 1030.7 in Calm   1.6 mph 87 % 0.0 in
18:57 10.8 °F 8.7 °F 1031.0 in Calm   1.6 mph 87 % 0.0 in
19:02 10.7 °F 8.6 °F 1031.0 in Calm     87 % 0.0 in
19:12 10.7 °F 8.8 °F 1031.0 in Calm     88 % 0.0 in
19:17 10.9 °F 8.8 °F 1031.0 in Calm   1.6 mph 87 % 0.0 in
19:27 10.7 °F 8.8 °F 1031.0 in NNW 1.6 mph 3.2 mph 88 % 0.0 in
19:32 10.7 °F 8.6 °F 1031.0 in North 1.6 mph 3.2 mph 87 % 0.0 in
19:37 10.6 °F 8.7 °F 1031.0 in NNW 1.6 mph 3.2 mph 88 % 0.0 in
19:42 10.5 °F 8.6 °F 1031.0 in NNW 1.6 mph 4.8 mph 88 % 0.0 in
19:47 10.6 °F 8.9 °F 1031.0 in Calm   4.8 mph 89 % 0.0 in
19:57 10.5 °F 8.6 °F 1031.0 in Calm   3.2 mph 88 % 0.0 in
20:02 10.4 °F 8.7 °F 1031.0 in NNW 1.6 mph 1.6 mph 89 % 0.0 in
20:12 10.6 °F 9.0 °F 1031.0 in Calm   3.2 mph 90 % 0.0 in
20:17 10.4 °F 8.8 °F 1031.0 in WNW 3.2 mph 4.8 mph 90 % 0.5 in
20:22 10.3 °F 8.9 °F 1031.0 in Calm   6.4 mph 91 % 0.5 in
20:27 10.2 °F 9.0 °F 1031.0 in Calm   6.4 mph 92 % 1.0 in
20:37 10.1 °F 9.0 °F 1031.0 in Calm   3.2 mph 93 % 1.5 in
20:42 10.1 °F 9.0 °F 1031.0 in NW 1.6 mph 1.6 mph 93 % 1.5 in
20:47 10.1 °F 9.2 °F 1031.0 in North 1.6 mph 1.6 mph 94 % 1.8 in
20:52 9.9 °F 9.0 °F 1031.0 in Calm   3.2 mph 94 % 1.8 in
20:57 9.9 °F 9.0 °F 1031.0 in Calm   3.2 mph 94 % 1.8 in
21:02 9.8 °F 8.9 °F 1031.0 in South 1.6 mph 3.2 mph 94 % 1.8 in
21:07 9.7 °F 8.8 °F 1030.7 in Calm   3.2 mph 94 % 1.8 in
21:12 9.7 °F 8.9 °F 1031.0 in Calm   3.2 mph 95 % 1.5 in
21:17 9.7 °F 8.9 °F 1031.0 in Calm   3.2 mph 95 % 1.5 in
21:27 9.5 °F 8.7 °F 1031.0 in Calm   1.6 mph 95 % 0.8 in
21:32 9.5 °F 8.7 °F 1031.0 in Calm   1.6 mph 95 % 0.5 in
21:42 9.6 °F 9.0 °F 1031.0 in Calm   1.6 mph 96 % 0.3 in
21:47 9.6 °F 9.0 °F 1031.0 in Calm     96 % 0.0 in
21:52 9.5 °F 8.7 °F 1031.0 in NNW 3.2 mph   95 % 0.0 in
21:57 9.3 °F 8.5 °F 1031.0 in Calm   3.2 mph 95 % 0.0 in
22:02 9.1 °F 8.3 °F 1031.0 in Calm   3.2 mph 95 % 0.0 in
22:07 9.0 °F 8.2 °F 1030.7 in Calm   3.2 mph 95 % 0.0 in
22:12 8.9 °F 8.3 °F 1030.7 in NNW 1.6 mph   96 % 0.0 in
22:17 8.8 °F 8.2 °F 1030.7 in Calm   1.6 mph 96 % 0.0 in
22:22 8.6 °F 7.8 °F 1030.7 in SSW 3.2 mph 3.2 mph 95 % 0.0 in
22:27 8.6 °F 8.0 °F 1030.7 in Calm   3.2 mph 96 % 0.0 in
22:32 8.5 °F 7.9 °F 1030.7 in Calm   3.2 mph 96 % 0.0 in
22:37 8.4 °F 7.8 °F 1030.7 in Calm   3.2 mph 96 % 0.0 in
22:42 8.5 °F 7.9 °F 1030.7 in Calm   3.2 mph 96 % 0.0 in
22:47 8.6 °F 8.2 °F 1030.7 in Calm   1.6 mph 97 % 0.0 in
22:52 8.4 °F 7.8 °F 1030.7 in North 1.6 mph   96 % 0.0 in
23:02 8.6 °F 8.2 °F 1030.7 in Calm   3.2 mph 97 % 0.0 in
23:12 8.7 °F 8.3 °F 1030.7 in Calm   1.6 mph 97 % 0.0 in
23:17 8.8 °F 8.3 °F 1030.7 in Calm   1.6 mph 97 % 0.0 in
23:22 8.8 °F 8.3 °F 1030.7 in Calm     97 % 0.0 in
23:27 8.7 °F 8.3 °F 1030.7 in Calm     97 % 0.0 in
23:32 8.7 °F 8.3 °F 1030.7 in Calm     97 % 0.0 in
23:37 8.4 °F 7.8 °F 1030.7 in Calm     96 % 0.0 in
23:42 8.4 °F 8.0 °F 1030.7 in Calm     97 % 0.0 in
23:47 8.6 °F 8.2 °F 1030.7 in Calm     97 % 0.0 in
23:52 8.5 °F 8.1 °F 1030.4 in Calm     97 % 0.0 in
Meteo18
Compliments of Weather Underground - 4 mb

Script developed by  Jim McMurry - jmcmurry@mwt.net Adapted for the template by  Wim van der Kuil - Leuven-Template.eu

You find our weather info also at:

European Weather Network

Weather Underground

Equipment we use:

Weather-station
Davis Vue

Weather-program
Meteobridge

Weather-server
Raspberry PI 2 B+

Provider
1 and 1

Davis Vue

Meteobridge

Raspberry PI 2 B+

1 and 1